Time;durP1;ratioP1;P1;durP2;ratioP2;P2;SDS_P1;SDS_P2;PMS_P1;PMS_P2;Temp;Humidity;BMP_temperature;BMP_pressure;BME280_temperature;BME280_humidity;BME280_pressure;Samples;Min_cycle;Max_cycle;Signal;HPM_P1;HPM_P2
2023/09/14 00:01:55;;;;;;;1.50;1.00;;;15.70;98.20;;;;;;4992322;28;20241;-79
2023/09/14 00:04:22;;;;;;;1.50;1.00;;;15.70;98.20;;;;;;4988019;28;20505;-80
2023/09/14 00:06:49;;;;;;;1.50;1.00;;;15.70;98.20;;;;;;4992967;28;20486;-79
2023/09/14 00:09:18;;;;;;;1.50;1.00;;;15.70;98.20;;;;;;4992108;28;20505;-80
2023/09/14 00:11:44;;;;;;;1.50;1.00;;;15.70;98.20;;;;;;4991427;28;21159;-79
2023/09/14 00:14:11;;;;;;;1.50;1.00;;;15.60;98.20;;;;;;4990611;28;20874;-79
2023/09/14 00:16:38;;;;;;;1.50;0.97;;;15.60;98.20;;;;;;4994600;28;20469;-79
2023/09/14 00:19:05;;;;;;;1.50;1.00;;;15.60;98.20;;;;;;4989195;28;20465;-79
2023/09/14 00:21:31;;;;;;;1.50;1.10;;;15.60;98.20;;;;;;4991228;28;20469;-79
2023/09/14 00:23:58;;;;;;;1.50;1.00;;;15.50;98.20;;;;;;4991919;28;20492;-79
2023/09/14 00:26:26;;;;;;;1.50;1.10;;;15.50;98.20;;;;;;4984153;28;20906;-80
2023/09/14 00:28:53;;;;;;;1.50;1.00;;;15.50;98.20;;;;;;4987633;28;20462;-79
2023/09/14 00:31:20;;;;;;;1.50;1.00;;;15.40;98.20;;;;;;4994656;28;20471;-79
2023/09/14 00:33:47;;;;;;;1.50;1.03;;;15.40;98.20;;;;;;4997631;28;20798;-79
2023/09/14 00:36:14;;;;;;;1.53;1.00;;;15.40;98.20;;;;;;4990832;28;20467;-79
2023/09/14 00:38:41;;;;;;;1.50;1.10;;;15.40;98.20;;;;;;4991939;28;20458;-79
2023/09/14 00:41:08;;;;;;;1.50;1.10;;;15.40;98.20;;;;;;4990651;28;20466;-79
2023/09/14 00:43:37;;;;;;;1.53;1.00;;;15.30;98.20;;;;;;4986426;28;20864;-79
2023/09/14 00:46:07;;;;;;;1.50;1.00;;;15.30;98.20;;;;;;4993269;28;20489;-79
2023/09/14 00:48:35;;;;;;;1.50;1.00;;;15.30;98.20;;;;;;4991681;28;20466;-79
2023/09/14 00:51:03;;;;;;;1.50;1.00;;;15.30;98.20;;;;;;4990046;28;20461;-79
2023/09/14 00:53:30;;;;;;;1.50;1.00;;;15.30;98.20;;;;;;4989348;28;20525;-79
2023/09/14 00:55:58;;;;;;;1.50;1.00;;;15.30;98.20;;;;;;4993288;28;20535;-79
2023/09/14 00:58:25;;;;;;;1.50;1.00;;;15.20;98.20;;;;;;4993229;28;20541;-80
2023/09/14 01:00:53;;;;;;;1.50;1.00;;;15.20;98.20;;;;;;4987919;28;20484;-79
2023/09/14 01:03:20;;;;;;;1.53;1.00;;;15.20;98.20;;;;;;4984781;28;20461;-79
2023/09/14 01:05:49;;;;;;;1.57;1.00;;;15.20;98.20;;;;;;4987243;28;20497;-79
2023/09/14 01:08:16;;;;;;;1.50;1.00;;;15.20;98.20;;;;;;4987058;28;20806;-80
2023/09/14 01:10:43;;;;;;;1.50;1.00;;;15.10;98.20;;;;;;4984812;28;20481;-79
2023/09/14 01:13:17;;;;;;;1.50;1.00;;;15.10;98.20;;;;;;4995497;28;20457;-79
2023/09/14 01:15:49;;;;;;;1.50;1.00;;;15.10;98.20;;;;;;4996111;28;20458;-79
2023/09/14 01:18:21;;;;;;;1.57;1.10;;;15.10;98.20;;;;;;4992217;28;20457;-79
2023/09/14 01:21:36;;;;;;;1.50;1.00;;;15.00;98.20;;;;;;4988751;28;20462;-79
2023/09/14 01:24:16;;;;;;;1.50;1.00;;;15.00;98.20;;;;;;4966066;28;20485;-79
2023/09/14 01:26:44;;;;;;;1.50;1.00;;;15.00;98.20;;;;;;4986934;28;20489;-79
2023/09/14 01:29:11;;;;;;;1.60;1.10;;;15.00;98.20;;;;;;4996876;28;20461;-79
2023/09/14 01:31:38;;;;;;;1.50;1.00;;;15.00;98.20;;;;;;4994640;28;20468;-79
2023/09/14 01:34:05;;;;;;;1.50;1.00;;;14.90;98.20;;;;;;4994912;28;20536;-78
2023/09/14 01:36:42;;;;;;;1.50;1.00;;;14.90;98.20;;;;;;4997254;28;20466;-79
2023/09/14 01:39:10;;;;;;;1.50;1.00;;;14.90;98.20;;;;;;4995922;28;20465;-79
2023/09/14 01:41:37;;;;;;;1.50;1.00;;;14.90;98.20;;;;;;4991754;28;20462;-79
2023/09/14 01:44:07;;;;;;;1.53;1.00;;;14.90;98.20;;;;;;4994824;28;20495;-79
2023/09/14 01:46:34;;;;;;;1.50;1.00;;;14.90;98.20;;;;;;4985170;28;20500;-79
2023/09/14 01:49:01;;;;;;;1.53;1.10;;;14.80;98.20;;;;;;4995330;28;20462;-79
2023/09/14 01:51:28;;;;;;;1.50;1.00;;;14.80;98.20;;;;;;4993543;28;20462;-79
2023/09/14 01:53:55;;;;;;;1.60;1.10;;;14.80;98.20;;;;;;4999838;28;20489;-79
2023/09/14 01:56:22;;;;;;;1.53;1.00;;;14.70;98.20;;;;;;4983486;28;20530;-79
2023/09/14 01:58:49;;;;;;;1.50;1.00;;;14.70;98.20;;;;;;4993677;28;20537;-79
2023/09/14 02:01:17;;;;;;;1.50;1.00;;;14.70;98.20;;;;;;4988868;28;20473;-79
2023/09/14 02:03:44;;;;;;;1.53;1.10;;;14.70;98.20;;;;;;4989355;28;20487;-79
2023/09/14 02:06:10;;;;;;;1.53;1.10;;;14.70;98.20;;;;;;4989532;28;20493;-79
2023/09/14 02:08:37;;;;;;;1.50;1.00;;;14.70;98.20;;;;;;4990445;28;20469;-79
2023/09/14 02:11:04;;;;;;;1.50;1.00;;;14.60;98.20;;;;;;4992164;28;20468;-78
2023/09/14 02:13:31;;;;;;;1.60;1.10;;;14.60;98.20;;;;;;4987915;28;20556;-78
2023/09/14 02:15:58;;;;;;;1.60;1.20;;;14.60;98.20;;;;;;4995638;28;20492;-79
2023/09/14 02:18:26;;;;;;;1.50;1.00;;;14.60;98.20;;;;;;4986413;28;20969;-79
2023/09/14 02:20:53;;;;;;;1.50;1.00;;;14.50;98.20;;;;;;4996285;28;20472;-79
2023/09/14 02:23:20;;;;;;;1.50;1.00;;;14.50;98.20;;;;;;4988175;28;20549;-80
2023/09/14 02:25:47;;;;;;;1.50;1.00;;;14.50;98.20;;;;;;4992658;28;20490;-79
2023/09/14 02:28:15;;;;;;;1.50;1.00;;;14.50;98.20;;;;;;4995733;28;20461;-79
2023/09/14 02:30:42;;;;;;;1.50;1.10;;;14.50;98.20;;;;;;4993076;28;20504;-79
2023/09/14 02:33:09;;;;;;;1.57;1.00;;;14.50;98.20;;;;;;4991889;28;20461;-79
2023/09/14 02:35:37;;;;;;;1.50;1.00;;;14.50;98.20;;;;;;4995709;28;20470;-79
2023/09/14 02:38:04;;;;;;;1.50;1.00;;;14.50;98.20;;;;;;4995961;28;20461;-79
2023/09/14 02:40:31;;;;;;;1.50;1.00;;;14.50;98.20;;;;;;4995521;28;20466;-79
2023/09/14 02:42:58;;;;;;;1.50;1.00;;;14.50;98.20;;;;;;4990297;28;20469;-79
2023/09/14 02:45:26;;;;;;;1.50;1.00;;;14.50;98.20;;;;;;4990822;28;20485;-79
2023/09/14 02:47:52;;;;;;;1.53;1.00;;;14.50;98.20;;;;;;4996432;28;20485;-78
2023/09/14 02:50:19;;;;;;;1.50;1.00;;;14.50;98.20;;;;;;4994715;28;20465;-79
2023/09/14 02:52:47;;;;;;;1.50;1.00;;;14.50;98.20;;;;;;5000896;28;20467;-79
2023/09/14 02:55:14;;;;;;;1.50;1.00;;;14.50;98.20;;;;;;4990803;28;20493;-79
2023/09/14 02:57:41;;;;;;;1.50;0.93;;;14.50;98.20;;;;;;4998745;28;20471;-79
2023/09/14 03:00:12;;;;;;;1.50;1.10;;;14.50;98.20;;;;;;4996871;28;20464;-79
2023/09/14 03:02:40;;;;;;;1.50;1.00;;;14.50;98.20;;;;;;4995945;28;20457;-78
2023/09/14 03:05:07;;;;;;;1.50;1.10;;;14.50;98.20;;;;;;4999634;28;20504;-78
2023/09/14 03:07:33;;;;;;;1.50;1.00;;;14.50;98.20;;;;;;4991039;28;20499;-80
2023/09/14 03:10:02;;;;;;;1.53;1.00;;;14.50;98.20;;;;;;4990668;28;20474;-78
2023/09/14 03:12:29;;;;;;;1.50;1.00;;;14.40;98.20;;;;;;4994740;28;20478;-80
2023/09/14 03:14:56;;;;;;;1.50;0.90;;;14.40;98.20;;;;;;4998731;28;20485;-80
2023/09/14 03:17:23;;;;;;;1.53;1.00;;;14.40;98.20;;;;;;4996025;28;20461;-79
2023/09/14 03:19:49;;;;;;;1.50;1.00;;;14.40;98.20;;;;;;4999108;28;20497;-79
2023/09/14 03:22:16;;;;;;;1.50;1.00;;;14.40;98.20;;;;;;5002563;28;20465;-78
2023/09/14 03:24:43;;;;;;;1.50;1.00;;;14.40;98.20;;;;;;4993754;28;20482;-78
2023/09/14 03:27:12;;;;;;;1.53;1.00;;;14.40;98.20;;;;;;4987207;28;20493;-78
2023/09/14 03:29:38;;;;;;;1.50;1.00;;;14.40;98.20;;;;;;4992354;28;20540;-78
2023/09/14 03:32:05;;;;;;;1.50;1.00;;;14.40;98.20;;;;;;4994131;28;20837;-78
2023/09/14 03:34:32;;;;;;;1.50;1.10;;;14.40;98.20;;;;;;4987685;28;20492;-78
2023/09/14 03:36:59;;;;;;;1.53;1.00;;;14.40;98.20;;;;;;4994625;28;20816;-78
2023/09/14 03:39:26;;;;;;;1.50;1.00;;;14.40;98.20;;;;;;4993593;28;20461;-78
2023/09/14 03:41:53;;;;;;;1.50;1.00;;;14.40;98.20;;;;;;4983800;28;20473;-77
2023/09/14 03:44:21;;;;;;;1.50;1.00;;;14.30;98.20;;;;;;4991279;28;20569;-77
2023/09/14 03:46:48;;;;;;;1.50;1.00;;;14.30;98.20;;;;;;4993612;28;20491;-78
2023/09/14 03:49:14;;;;;;;1.50;1.00;;;14.20;98.20;;;;;;4994604;28;20872;-78
2023/09/14 03:51:41;;;;;;;1.50;1.00;;;14.20;98.20;;;;;;4992744;28;20474;-79
2023/09/14 03:54:08;;;;;;;1.50;1.00;;;14.20;98.20;;;;;;4990488;28;20488;-78
2023/09/14 03:56:35;;;;;;;1.50;1.00;;;14.20;98.20;;;;;;4981740;28;20466;-78
2023/09/14 03:59:02;;;;;;;1.53;1.00;;;14.20;98.20;;;;;;4982686;28;20503;-78
2023/09/14 04:01:30;;;;;;;1.50;1.03;;;14.20;98.20;;;;;;4989139;28;22256;-78
2023/09/14 04:03:57;;;;;;;1.50;1.10;;;14.10;98.20;;;;;;4982794;28;20584;-79
2023/09/14 04:06:24;;;;;;;1.50;1.10;;;14.10;98.20;;;;;;4986057;28;20495;-78
2023/09/14 04:08:51;;;;;;;1.53;1.00;;;14.20;98.20;;;;;;4999712;28;20469;-78
2023/09/14 04:11:18;;;;;;;1.50;1.00;;;14.20;98.20;;;;;;4994160;28;21140;-78
2023/09/14 04:13:44;;;;;;;1.50;1.03;;;14.20;98.20;;;;;;4982702;28;20495;-79
2023/09/14 04:16:13;;;;;;;1.50;1.00;;;14.20;98.20;;;;;;4992376;28;20572;-78
2023/09/14 04:18:41;;;;;;;1.50;1.00;;;14.20;98.20;;;;;;4997131;28;20839;-79
2023/09/14 04:21:08;;;;;;;1.50;1.00;;;14.20;98.20;;;;;;4993509;28;20494;-79
2023/09/14 04:23:35;;;;;;;1.53;1.10;;;14.20;98.20;;;;;;4994376;28;20501;-79
2023/09/14 04:26:03;;;;;;;1.53;1.10;;;14.20;98.20;;;;;;4986963;28;20560;-78
2023/09/14 04:28:30;;;;;;;1.50;1.10;;;14.20;98.20;;;;;;4993167;28;20469;-79
2023/09/14 04:31:01;;;;;;;1.53;1.10;;;14.20;98.20;;;;;;4984004;28;20493;-78
2023/09/14 04:33:28;;;;;;;1.50;1.00;;;14.20;98.20;;;;;;4998319;28;20702;-78
2023/09/14 04:36:02;;;;;;;1.50;1.10;;;14.10;98.20;;;;;;4987942;28;20466;-78
2023/09/14 04:38:29;;;;;;;1.50;1.00;;;14.10;98.20;;;;;;4980455;28;20549;-79
2023/09/14 04:40:56;;;;;;;1.57;1.10;;;14.10;98.20;;;;;;4988334;28;20472;-78
2023/09/14 04:43:24;;;;;;;1.60;1.10;;;14.10;98.20;;;;;;4995580;28;20454;-78
2023/09/14 04:45:50;;;;;;;1.50;1.00;;;14.10;98.20;;;;;;4989120;28;20468;-78
2023/09/14 04:48:17;;;;;;;1.60;1.10;;;14.00;98.20;;;;;;4982499;28;20496;-79
2023/09/14 04:50:44;;;;;;;1.50;1.00;;;14.00;98.20;;;;;;4982165;28;20469;-79
2023/09/14 04:53:12;;;;;;;1.50;1.10;;;14.00;98.20;;;;;;4997347;28;20496;-78
2023/09/14 04:55:39;;;;;;;1.53;1.00;;;14.00;98.20;;;;;;4986955;28;20461;-79
2023/09/14 04:58:07;;;;;;;1.53;1.00;;;14.00;98.20;;;;;;4995795;28;20452;-78
2023/09/14 05:00:34;;;;;;;1.50;1.00;;;14.00;98.20;;;;;;4995771;28;20457;-79
2023/09/14 05:03:04;;;;;;;1.57;1.07;;;14.00;98.20;;;;;;4986155;28;20532;-79
2023/09/14 05:05:31;;;;;;;1.50;1.00;;;14.00;98.20;;;;;;4981009;28;20469;-79
2023/09/14 05:07:58;;;;;;;1.50;1.00;;;14.00;98.20;;;;;;4985490;28;20515;-81
2023/09/14 05:10:26;;;;;;;1.50;1.00;;;14.00;98.20;;;;;;4981806;28;20956;-80
2023/09/14 05:12:53;;;;;;;1.60;1.13;;;14.00;98.20;;;;;;4991000;28;20492;-80
2023/09/14 05:15:20;;;;;;;1.57;1.10;;;14.00;98.20;;;;;;4991993;28;20486;-79
2023/09/14 05:17:47;;;;;;;1.50;1.00;;;14.00;98.20;;;;;;4986270;28;20458;-79
2023/09/14 05:20:14;;;;;;;1.50;1.00;;;14.00;98.20;;;;;;4988303;28;20561;-78
2023/09/14 05:22:41;;;;;;;1.57;1.10;;;14.00;98.20;;;;;;4988797;28;20479;-79
2023/09/14 05:25:09;;;;;;;1.50;1.10;;;13.90;98.20;;;;;;4982622;28;20512;-79
2023/09/14 05:27:38;;;;;;;1.50;1.00;;;13.90;98.20;;;;;;4988484;28;20485;-79
2023/09/14 05:30:06;;;;;;;1.50;1.03;;;13.90;98.20;;;;;;4987242;28;20525;-79
2023/09/14 05:32:33;;;;;;;1.57;1.10;;;14.00;98.20;;;;;;4982579;28;20500;-79
2023/09/14 05:35:00;;;;;;;1.50;1.00;;;14.00;98.20;;;;;;4972082;28;20586;-79
2023/09/14 05:37:27;;;;;;;1.57;1.07;;;14.00;98.20;;;;;;4982982;28;20466;-79
2023/09/14 05:39:54;;;;;;;1.50;1.00;;;14.00;98.20;;;;;;4994075;28;20493;-80
2023/09/14 05:42:22;;;;;;;1.50;1.00;;;14.00;98.20;;;;;;4977480;28;20610;-80
2023/09/14 05:44:50;;;;;;;1.50;1.00;;;14.00;98.20;;;;;;4995714;28;20533;-81
2023/09/14 05:47:17;;;;;;;1.53;1.00;;;14.10;98.20;;;;;;4987077;28;20494;-80
2023/09/14 05:49:45;;;;;;;1.50;1.00;;;14.10;98.20;;;;;;4984815;28;20474;-81
2023/09/14 05:52:12;;;;;;;1.60;1.20;;;14.10;98.20;;;;;;4976358;28;20466;-81
2023/09/14 05:54:39;;;;;;;1.50;1.00;;;14.10;98.20;;;;;;4977443;28;20483;-79
2023/09/14 05:57:06;;;;;;;1.50;1.00;;;14.10;98.20;;;;;;4989541;28;20476;-80
2023/09/14 05:59:33;;;;;;;1.50;1.00;;;14.20;98.20;;;;;;4985035;28;20510;-81
2023/09/14 06:02:01;;;;;;;1.50;1.03;;;14.20;98.20;;;;;;4977937;28;20457;-80
2023/09/14 06:04:28;;;;;;;1.53;1.00;;;14.20;98.20;;;;;;4970371;28;20462;-77
2023/09/14 06:06:55;;;;;;;1.50;1.00;;;14.30;98.20;;;;;;4976892;28;20496;-79
2023/09/14 06:09:21;;;;;;;1.50;1.00;;;14.30;98.20;;;;;;4974171;28;20565;-79
2023/09/14 06:11:48;;;;;;;1.50;1.00;;;14.40;98.20;;;;;;4974113;28;20486;-78
2023/09/14 06:14:15;;;;;;;1.50;1.03;;;14.40;98.20;;;;;;4974687;28;20485;-80
2023/09/14 06:16:42;;;;;;;1.50;1.00;;;14.50;98.20;;;;;;4971600;28;20465;-80
2023/09/14 06:19:10;;;;;;;1.50;1.00;;;14.50;98.20;;;;;;4975789;28;20466;-79
2023/09/14 06:21:37;;;;;;;1.53;1.00;;;14.50;98.20;;;;;;4975631;28;20462;-80
2023/09/14 06:24:04;;;;;;;1.50;1.00;;;14.60;98.20;;;;;;4974670;28;20516;-79
2023/09/14 06:26:31;;;;;;;1.53;1.00;;;14.60;98.20;;;;;;4970683;28;20580;-77
2023/09/14 06:28:58;;;;;;;1.57;1.00;;;14.70;98.20;;;;;;4970253;28;20493;-77
2023/09/14 06:31:25;;;;;;;1.60;1.10;;;14.80;98.20;;;;;;4965605;28;20470;-77
2023/09/14 06:33:52;;;;;;;1.50;1.00;;;14.90;98.20;;;;;;4969295;28;20490;-77
2023/09/14 06:36:20;;;;;;;1.60;1.10;;;15.00;98.20;;;;;;4971483;28;20472;-77
2023/09/14 06:38:47;;;;;;;1.60;1.10;;;15.10;98.20;;;;;;4967351;28;21374;-77
2023/09/14 06:41:14;;;;;;;1.50;1.00;;;15.20;98.20;;;;;;4965989;28;20473;-77
2023/09/14 06:43:42;;;;;;;1.57;1.07;;;15.20;98.20;;;;;;4971171;28;20484;-78
2023/09/14 06:46:10;;;;;;;1.50;1.00;;;15.20;98.20;;;;;;4976296;28;20740;-78
2023/09/14 06:48:37;;;;;;;1.50;1.00;;;15.20;98.20;;;;;;4975152;28;20490;-78
2023/09/14 06:51:05;;;;;;;1.53;1.00;;;15.30;98.20;;;;;;4979357;28;20490;-78
2023/09/14 06:53:33;;;;;;;1.50;1.00;;;15.40;98.20;;;;;;4976864;28;20490;-78
2023/09/14 06:56:05;;;;;;;1.53;1.00;;;15.40;98.20;;;;;;4978450;28;20474;-78
2023/09/14 06:58:32;;;;;;;1.57;1.00;;;15.50;98.20;;;;;;4979418;28;20490;-78
2023/09/14 07:01:02;;;;;;;1.57;1.00;;;15.50;98.20;;;;;;4978576;28;20472;-78
2023/09/14 07:03:29;;;;;;;1.57;1.00;;;15.60;98.20;;;;;;4979670;28;20490;-78
2023/09/14 07:05:56;;;;;;;1.57;1.03;;;15.70;98.20;;;;;;4980316;28;21208;-77
2023/09/14 07:08:23;;;;;;;1.53;1.00;;;15.70;98.20;;;;;;4977768;28;20489;-78
2023/09/14 07:10:51;;;;;;;1.57;1.00;;;15.80;98.20;;;;;;4977929;28;20476;-78
2023/09/14 07:13:18;;;;;;;1.57;1.00;;;15.80;98.20;;;;;;4979402;28;20465;-78
2023/09/14 07:15:45;;;;;;;1.50;1.00;;;15.90;98.20;;;;;;4977099;28;20465;-77
2023/09/14 07:18:26;;;;;;;1.50;1.00;;;15.90;98.20;;;;;;4978210;28;20489;-78
2023/09/14 07:20:53;;;;;;;1.57;1.00;;;16.00;98.20;;;;;;4978032;28;20561;-78
2023/09/14 07:23:20;;;;;;;1.50;1.00;;;16.10;98.20;;;;;;4974984;28;20476;-78
2023/09/14 07:25:49;;;;;;;1.50;0.90;;;16.20;98.20;;;;;;4976048;28;20473;-78
2023/09/14 07:28:18;;;;;;;1.60;1.10;;;16.30;98.20;;;;;;4978436;28;20557;-78
2023/09/14 07:30:46;;;;;;;1.50;1.00;;;16.30;98.20;;;;;;4971139;28;20465;-79
2023/09/14 07:33:14;;;;;;;1.50;0.97;;;16.40;98.20;;;;;;4977128;28;20461;-78
2023/09/14 07:38:22;;;;;;;1.50;1.00;;;16.50;98.20;;;;;;4983310;28;20836;-78
2023/09/14 07:40:49;;;;;;;1.50;0.90;;;16.50;98.20;;;;;;4978066;28;20556;-78
2023/09/14 07:43:17;;;;;;;1.50;0.90;;;16.60;98.20;;;;;;4977899;28;20964;-78
2023/09/14 07:45:44;;;;;;;1.50;1.00;;;16.60;98.20;;;;;;4973750;28;20842;-78
2023/09/14 07:48:11;;;;;;;1.50;1.00;;;16.60;98.20;;;;;;4974183;28;20485;-78
2023/09/14 07:50:40;;;;;;;1.50;1.00;;;16.60;98.20;;;;;;4970545;28;20497;-77
2023/09/14 07:53:07;;;;;;;1.50;0.93;;;16.70;98.20;;;;;;4974075;28;20495;-77
2023/09/14 07:55:34;;;;;;;1.53;1.00;;;16.70;98.20;;;;;;4978048;28;20460;-79
2023/09/14 07:58:01;;;;;;;1.53;1.00;;;16.80;98.20;;;;;;4974515;28;20504;-78
2023/09/14 08:00:29;;;;;;;1.53;1.00;;;16.90;98.20;;;;;;4974572;28;20494;-78
2023/09/14 08:02:56;;;;;;;1.50;1.00;;;16.90;98.20;;;;;;4976045;28;20479;-78
2023/09/14 08:05:23;;;;;;;1.53;1.00;;;17.00;98.20;;;;;;4975657;28;20486;-79
2023/09/14 08:07:50;;;;;;;1.50;0.90;;;17.10;98.20;;;;;;4976392;28;20493;-79
2023/09/14 08:10:17;;;;;;;1.50;1.00;;;17.20;98.20;;;;;;4972746;28;20462;-76
2023/09/14 08:12:43;;;;;;;1.53;1.00;;;17.20;98.20;;;;;;4971576;28;20470;-77
2023/09/14 08:15:11;;;;;;;1.53;1.00;;;17.30;98.20;;;;;;4974567;28;20800;-79
2023/09/14 08:17:39;;;;;;;1.53;1.00;;;17.30;98.20;;;;;;4974382;28;20462;-77
2023/09/14 08:20:08;;;;;;;1.60;1.10;;;17.40;98.20;;;;;;4968209;28;20894;-77
2023/09/14 08:22:35;;;;;;;1.50;0.90;;;17.40;98.20;;;;;;4973634;28;20466;-77
2023/09/14 08:25:03;;;;;;;1.50;0.93;;;17.50;98.20;;;;;;4971268;28;20497;-78
2023/09/14 08:27:30;;;;;;;1.50;1.00;;;17.60;98.20;;;;;;4973245;28;20509;-77
2023/09/14 08:29:57;;;;;;;1.50;1.00;;;17.60;98.20;;;;;;4973636;28;20832;-79
2023/09/14 08:32:24;;;;;;;1.50;0.90;;;17.70;98.20;;;;;;4977633;28;20477;-78
2023/09/14 08:34:56;;;;;;;1.50;1.00;;;17.80;98.20;;;;;;4974734;28;20500;-78
2023/09/14 08:37:33;;;;;;;1.50;0.90;;;17.90;98.20;;;;;;4977643;28;20466;-79
2023/09/14 08:40:00;;;;;;;1.50;0.93;;;18.00;98.20;;;;;;4973842;28;20501;-78
2023/09/14 08:42:27;;;;;;;1.50;0.90;;;18.10;98.20;;;;;;4975157;28;20465;-78
2023/09/14 08:44:55;;;;;;;1.50;0.90;;;18.20;98.20;;;;;;4971168;28;20541;-78
2023/09/14 08:47:23;;;;;;;1.50;0.90;;;18.20;98.20;;;;;;4975411;28;20462;-79
2023/09/14 08:49:54;;;;;;;1.60;1.00;;;18.20;98.20;;;;;;4979407;28;20473;-78
2023/09/14 08:52:22;;;;;;;1.53;1.00;;;18.30;98.20;;;;;;4976404;28;20497;-78
2023/09/14 08:54:50;;;;;;;1.50;1.00;;;18.30;98.20;;;;;;4974437;28;20517;-78
2023/09/14 08:57:17;;;;;;;1.60;1.10;;;18.40;98.20;;;;;;4974159;28;21008;-78
2023/09/14 08:59:43;;;;;;;1.50;0.90;;;18.50;98.20;;;;;;4977433;28;20985;-79
2023/09/14 09:02:13;;;;;;;1.50;0.90;;;18.60;98.20;;;;;;4971617;28;20478;-79
2023/09/14 09:04:40;;;;;;;1.50;0.90;;;18.60;98.20;;;;;;4977558;28;20504;-78
2023/09/14 09:07:10;;;;;;;1.53;1.00;;;18.70;98.20;;;;;;4974301;28;20469;-78
2023/09/14 09:09:37;;;;;;;1.53;0.90;;;18.70;98.20;;;;;;4976504;28;20478;-79
2023/09/14 09:12:04;;;;;;;1.53;1.00;;;18.90;98.20;;;;;;4971972;28;20463;-79
2023/09/14 09:14:32;;;;;;;1.57;1.00;;;19.00;98.20;;;;;;4972428;28;20494;-79
2023/09/14 09:16:59;;;;;;;1.57;1.10;;;19.00;98.20;;;;;;4976076;28;20526;-78
2023/09/14 09:19:27;;;;;;;1.57;1.00;;;19.00;98.20;;;;;;4975428;28;20545;-78
2023/09/14 09:21:55;;;;;;;1.50;1.00;;;19.10;98.20;;;;;;4973971;28;20854;-79
2023/09/14 09:24:28;;;;;;;1.53;0.90;;;19.20;98.20;;;;;;4976265;28;20486;-79
2023/09/14 09:27:26;;;;;;;1.70;1.30;;;19.30;98.20;;;;;;4979447;28;20949;-80
2023/09/14 09:29:58;;;;;;;1.53;0.90;;;19.50;98.20;;;;;;4970306;28;20482;-79
2023/09/14 09:32:25;;;;;;;1.50;0.90;;;19.80;98.20;;;;;;4974204;28;20824;-79
2023/09/14 09:34:53;;;;;;;1.53;0.90;;;20.00;98.20;;;;;;4972010;28;20508;-80
2023/09/14 09:37:19;;;;;;;1.53;0.90;;;20.00;98.20;;;;;;4976187;28;20493;-81
2023/09/14 09:39:48;;;;;;;1.50;0.90;;;20.10;98.20;;;;;;4973814;28;20904;-80
2023/09/14 09:42:22;;;;;;;1.57;1.00;;;20.30;98.20;;;;;;4979395;28;20457;-80
2023/09/14 09:44:49;;;;;;;1.57;0.90;;;20.50;98.20;;;;;;4977286;28;20490;-79
2023/09/14 09:47:16;;;;;;;3.10;1.67;;;20.70;98.20;;;;;;4979189;28;21106;-81
2023/09/14 09:49:43;;;;;;;2.03;1.73;;;20.90;98.20;;;;;;4976393;28;20562;-81
2023/09/14 09:52:11;;;;;;;1.50;0.90;;;21.10;98.20;;;;;;4976083;28;20466;-80
2023/09/14 09:54:38;;;;;;;1.50;0.90;;;21.30;98.20;;;;;;4974127;28;20500;-81
2023/09/14 09:57:07;;;;;;;1.70;1.50;;;21.60;98.20;;;;;;4973495;28;20476;-81
2023/09/14 09:59:34;;;;;;;1.60;1.27;;;21.90;98.20;;;;;;4974522;28;20466;-80
2023/09/14 10:02:02;;;;;;;1.50;0.90;;;22.20;98.20;;;;;;4972961;28;20480;-81
2023/09/14 10:04:30;;;;;;;1.50;0.90;;;22.40;98.20;;;;;;4976038;28;20988;-80
2023/09/14 10:06:59;;;;;;;1.50;0.90;;;22.40;98.20;;;;;;4975937;28;20961;-80
2023/09/14 10:09:26;;;;;;;1.50;0.90;;;22.30;98.20;;;;;;4975947;28;20489;-80
2023/09/14 10:11:54;;;;;;;1.50;0.90;;;22.20;98.20;;;;;;4972545;28;20933;-80
2023/09/14 10:14:25;;;;;;;1.50;0.90;;;22.10;98.20;;;;;;4976436;28;20554;-80
2023/09/14 10:16:55;;;;;;;1.50;0.90;;;22.00;98.20;;;;;;4976199;28;20474;-80
2023/09/14 10:19:23;;;;;;;1.50;0.90;;;21.90;98.20;;;;;;4977276;28;20569;-80
2023/09/14 10:21:53;;;;;;;1.50;0.90;;;21.80;98.20;;;;;;4977089;28;20499;-81
2023/09/14 10:24:21;;;;;;;1.60;1.17;;;21.70;98.20;;;;;;4979461;28;20486;-80
2023/09/14 10:26:50;;;;;;;1.50;0.90;;;21.60;98.20;;;;;;4980098;28;20469;-81
2023/09/14 10:29:18;;;;;;;1.50;0.90;;;21.50;98.20;;;;;;4983810;28;20481;-80
2023/09/14 10:31:49;;;;;;;1.50;1.00;;;21.40;98.20;;;;;;4975940;28;20541;-80
2023/09/14 10:34:17;;;;;;;1.50;0.90;;;21.40;98.20;;;;;;4981556;28;20653;-80
2023/09/14 10:36:46;;;;;;;1.50;0.90;;;21.30;98.20;;;;;;4982008;28;20493;-80
2023/09/14 10:39:16;;;;;;;1.50;0.90;;;21.20;98.20;;;;;;4979169;28;20457;-80
2023/09/14 10:41:44;;;;;;;1.50;1.10;;;21.10;98.20;;;;;;4981361;28;20493;-80
2023/09/14 10:44:11;;;;;;;1.50;0.90;;;21.00;98.20;;;;;;4987032;23;20503;-80
2023/09/14 10:46:42;;;;;;;1.50;0.90;;;20.90;98.20;;;;;;4969379;28;20737;-82
2023/09/14 10:49:10;;;;;;;1.50;0.90;;;20.90;98.20;;;;;;4968412;28;20936;-83
2023/09/14 10:51:37;;;;;;;1.50;0.90;;;20.90;98.20;;;;;;4969881;28;20545;-80
2023/09/14 10:54:05;;;;;;;1.60;1.10;;;20.90;98.20;;;;;;4960796;28;20787;-81
2023/09/14 10:56:32;;;;;;;1.70;1.10;;;20.80;98.20;;;;;;4959665;28;20462;-79
2023/09/14 10:59:08;;;;;;;1.50;0.90;;;20.60;98.20;;;;;;4954205;28;20493;-83
2023/09/14 11:01:45;;;;;;;1.50;1.00;;;20.50;98.20;;;;;;4952488;28;21072;-78
2023/09/14 11:04:15;;;;;;;1.50;0.90;;;20.40;98.20;;;;;;4958690;28;20490;-81
2023/09/14 11:06:43;;;;;;;1.50;0.90;;;20.50;98.20;;;;;;4954760;28;20473;-81
2023/09/14 11:09:13;;;;;;;1.50;0.90;;;20.50;98.20;;;;;;4953828;28;20494;-79
2023/09/14 11:11:41;;;;;;;2.23;1.97;;;20.50;98.20;;;;;;4951761;28;20462;-82
2023/09/14 11:14:09;;;;;;;1.50;1.00;;;20.60;98.20;;;;;;4962043;28;20487;-79
2023/09/14 11:16:42;;;;;;;1.53;1.00;;;20.50;98.20;;;;;;4963394;28;20477;-80
2023/09/14 11:19:10;;;;;;;1.50;0.90;;;20.50;98.20;;;;;;4962139;28;20459;-80
2023/09/14 11:21:45;;;;;;;1.50;0.90;;;20.50;98.20;;;;;;4958575;28;20842;-79
2023/09/14 11:24:12;;;;;;;1.50;0.90;;;20.50;98.20;;;;;;4956316;28;20577;-82
2023/09/14 11:26:46;;;;;;;1.50;0.90;;;20.60;98.20;;;;;;4959278;28;20898;-81
2023/09/14 11:29:14;;;;;;;1.50;0.90;;;20.60;98.20;;;;;;4950466;28;20861;-79
2023/09/14 11:31:42;;;;;;;1.50;0.90;;;20.60;98.20;;;;;;4953975;28;20504;-82
2023/09/14 11:34:13;;;;;;;1.50;0.90;;;20.50;98.20;;;;;;4955439;28;20515;-80
2023/09/14 11:36:42;;;;;;;1.50;0.90;;;20.60;98.20;;;;;;4957546;28;20473;-83
2023/09/14 11:39:09;;;;;;;1.50;0.90;;;20.60;98.20;;;;;;4944419;28;20479;-82
2023/09/14 11:41:37;;;;;;;1.50;0.90;;;20.70;98.20;;;;;;4953848;28;20477;-78
2023/09/14 11:44:05;;;;;;;1.50;0.90;;;20.80;98.20;;;;;;4948491;28;20482;-81
2023/09/14 11:46:34;;;;;;;1.50;0.90;;;20.80;98.20;;;;;;4950480;28;20495;-78
2023/09/14 11:49:02;;;;;;;1.80;1.40;;;20.80;98.20;;;;;;4945499;28;20486;-79
2023/09/14 11:51:30;;;;;;;1.50;0.90;;;20.90;98.20;;;;;;4947919;28;20950;-80
2023/09/14 11:53:59;;;;;;;1.50;0.90;;;21.00;98.20;;;;;;4949463;28;21027;-79
2023/09/14 11:56:27;;;;;;;1.50;0.90;;;21.10;98.20;;;;;;4948195;28;20493;-79
2023/09/14 11:58:58;;;;;;;1.50;0.90;;;21.10;98.20;;;;;;4950956;28;21043;-81
2023/09/14 12:01:25;;;;;;;1.50;1.17;;;21.10;98.20;;;;;;4948884;28;20969;-79
2023/09/14 12:03:52;;;;;;;1.50;0.90;;;21.20;98.20;;;;;;4948431;28;20727;-81
2023/09/14 12:06:19;;;;;;;1.50;0.90;;;21.50;98.20;;;;;;4950088;28;20970;-80
2023/09/14 12:08:47;;;;;;;1.50;0.90;;;21.80;98.20;;;;;;4948400;28;20487;-80
2023/09/14 12:11:15;;;;;;;1.50;0.90;;;22.10;98.20;;;;;;4953855;28;20474;-79
2023/09/14 12:13:50;;;;;;;1.80;1.40;;;22.40;98.20;;;;;;4952150;28;20497;-81
2023/09/14 12:16:21;;;;;;;1.50;0.90;;;22.60;97.80;;;;;;4946039;28;20969;-80
2023/09/14 12:18:48;;;;;;;1.50;0.90;;;22.80;95.60;;;;;;4948483;28;20509;-80
2023/09/14 12:21:16;;;;;;;1.50;0.90;;;22.90;92.80;;;;;;4950886;28;20555;-82
2023/09/14 12:23:45;;;;;;;1.50;0.90;;;22.70;89.90;;;;;;4954253;28;20496;-80
2023/09/14 12:26:15;;;;;;;1.50;0.90;;;22.60;93.20;;;;;;4941736;28;20474;-79
2023/09/14 12:28:46;;;;;;;1.50;0.90;;;22.40;90.80;;;;;;4949636;28;20854;-79
2023/09/14 12:31:14;;;;;;;1.50;0.90;;;22.30;91.40;;;;;;4952393;28;20467;-77
2023/09/14 12:33:41;;;;;;;1.50;0.90;;;22.30;93.40;;;;;;4946687;28;20494;-83
2023/09/14 12:36:10;;;;;;;1.50;0.90;;;22.30;92.30;;;;;;4956704;28;20463;-82
2023/09/14 12:38:37;;;;;;;1.50;0.90;;;22.30;92.80;;;;;;4958157;28;20461;-82
2023/09/14 12:41:05;;;;;;;1.50;0.87;;;22.40;93.60;;;;;;4949579;28;20466;-81
2023/09/14 12:43:34;;;;;;;1.50;0.90;;;22.50;88.80;;;;;;4955211;28;20832;-80
2023/09/14 12:46:01;;;;;;;1.50;0.90;;;22.50;87.70;;;;;;4951819;28;20467;-81
2023/09/14 12:48:29;;;;;;;1.50;0.90;;;22.40;89.80;;;;;;4949463;28;21162;-82
2023/09/14 12:50:57;;;;;;;1.47;0.83;;;22.40;89.00;;;;;;4953487;28;20887;-82
2023/09/14 12:53:25;;;;;;;1.50;0.83;;;22.50;91.00;;;;;;4951735;28;20839;-80
2023/09/14 12:55:53;;;;;;;1.47;0.90;;;22.60;91.80;;;;;;4944713;28;21262;-81